• Join FlightAware (Why Join?)
  • Login
  • US Flag 
08:45PM EDT


 

Airport Tracker/Info


-or-


 

Live Flight TrackerFlight Track Log ✈ SWA1035 ✈ 30-Apr-2013 ✈ KMHT - KTPA

Flight Track Log - Related Links

Times and Time Zones

All times are in EDT time to prevent confusion due to time zone crossing. See the SWA1035 flight status page for this flight to view local times or setup timezone preferences in your user account.

Time Position Orientation Groundspeed Altitude Reporting Facility
EDT Latitude Longitude Course Direction KTS MPH feet Rate Location/Type
07:08AM 42.9500 -71.4333 324° Northwest 164 189 1,000  Level KA90
07:09AM 42.9833 -71.4667 324° Northwest 183 211 2,900 2,100 Climbing KA90
07:10AM 43.0297 -71.4717 355° North 338 389 4,800 3,000 Climbing Boston Center
07:11AM 43.0456 -71.3692 78° East 264 304 8,700 3,000 Climbing Boston Center
07:12AM 43.0508 -71.2581 86° East 273 314 10,900 2,880 Climbing Boston Center
07:13AM 43.0600 -71.1414 84° East 319 367 14,500 3,600 Climbing Boston Center
07:14AM 43.0747 -70.9961 82° East 342 394 18,100 2,880 Climbing Boston Center
07:15AM 43.0131 -70.9039 132° Southeast 331 381 20,300 2,460 Climbing Boston Center
07:16AM 42.9072 -70.9178 185° South 296 341 23,100 2,700 Climbing Boston Center
07:17AM 42.8014 -70.9714 200° South 325 374 25,800 2,520 Climbing Boston Center
07:18AM 42.7194 -71.0781 224° Southwest 364 419 28,200 2,160 Climbing Boston Center
07:19AM 42.6500 -71.2008 232° Southwest 387 445 30,200 1,560 Climbing Boston Center
07:20AM 42.5764 -71.3319 233° Southwest 414 476 31,400 1,320 Climbing Boston Center
07:21AM 42.5025 -71.4656 233° Southwest 437 503 32,900 1,620 Climbing Boston Center
07:22AM 42.4222 -71.6019 231° Southwest 456 525 34,700 1,680 Climbing Boston Center
07:23AM 42.3481 -71.7350 233° Southwest 456 525 36,300 1,260 Climbing Boston Center
07:24AM 42.2719 -71.8706 233° Southwest 461 531 37,300 1,380 Climbing Boston Center
07:25AM 42.1975 -72.0058 233° Southwest 461 531 39,100 1,320 Climbing Boston Center
07:26AM 42.1228 -72.1350 232° Southwest 450 518 40,000 420 Climbing Boston Center
07:27AM 42.0500 -72.2611 232° Southwest 444 511 40,000  Level Boston Center
07:28AM 41.9753 -72.3925 233° Southwest 444 511 40,000  Level Boston Center
07:29AM 41.9022 -72.5211 233° Southwest 444 511 40,000  Level Boston Center
07:30AM 41.8314 -72.6436 232° Southwest 436 502 40,000  Level Boston Center
07:31AM 41.7539 -72.7769 232° Southwest 442 509 40,000  Level Boston Center
07:32AM 41.6806 -72.9042 232° Southwest 442 509 40,000  Level Boston Center
07:33AM 41.6069 -73.0286 232° Southwest 442 509 40,000  Level Boston Center
07:34AM 41.5353 -73.1500 232° Southwest 442 509 40,000  Level Boston Center
07:35AM 41.4617 -73.2794 233° Southwest 437 503 40,000  Level Boston Center
07:36AM 41.3386 -73.4875 232° Southwest 445 512 40,000  Level New York Center
07:37AM 41.2669 -73.6114 232° Southwest 445 512 40,000  Level New York Center
07:38AM 41.1931 -73.7381 232° Southwest 440 506 40,000  Level New York Center
07:39AM 41.1169 -73.8614 231° Southwest 440 506 40,000  Level New York Center
07:40AM 41.0450 -73.9844 232° Southwest 434 499 40,000  Level New York Center
07:41AM 40.9708 -74.1075 231° Southwest 434 499 40,000  Level New York Center
07:42AM 40.8856 -74.2403 230° Southwest 434 499 40,000  Level New York Center
07:43AM 40.8133 -74.3628 232° Southwest 439 505 40,000  Level New York Center
07:44AM 40.7386 -74.4847 231° Southwest 439 505 40,000  Level New York Center
07:45AM 40.6661 -74.6067 232° Southwest 439 505 40,000  Level New York Center
07:46AM 40.5911 -74.7283 231° Southwest 434 499 40,000  Level New York Center
07:47AM 40.5100 -74.8464 228° Southwest 434 499 40,000  Level New York Center
07:48AM 40.4267 -74.9614 226° Southwest 439 505 40,000  Level New York Center
07:49AM 40.3475 -75.0792 229° Southwest 444 511 40,000  Level New York Center
07:50AM 40.2642 -75.1911 226° Southwest 438 504 40,000  Level New York Center
07:51AM 40.1825 -75.3081 228° Southwest 438 504 40,000  Level New York Center
07:52AM 40.1011 -75.4222 227° Southwest 438 504 40,000  Level New York Center
07:53AM 40.0194 -75.5361 227° Southwest 438 504 40,000  Level New York Center
07:54AM 39.9375 -75.6494 227° Southwest 438 504 40,000  Level New York Center
07:55AM 39.8617 -75.7661 230° Southwest 433 498 40,000  Level New York Center
07:57AM 39.7275 -75.9747 230° Southwest 414 476 40,000  Level Washington Center
07:58AM 39.6564 -76.0956 233° Southwest 425 489 40,000  Level Washington Center
07:59AM 39.5786 -76.2108 229° Southwest 425 489 40,000  Level Washington Center
08:00AM 39.5050 -76.3286 231° Southwest 431 496 40,000  Level Washington Center
08:01AM 39.4314 -76.4461 231° Southwest 426 490 40,000  Level Washington Center
08:02AM 39.3492 -76.5603 227° Southwest 431 496 40,000 -300 Level Washington Center
08:03AM 39.2753 -76.6800 231° Southwest 431 496 39,500  Descending Washington Center
08:04AM 39.1992 -76.7967 230° Southwest 431 496 40,000 240 Climbing Washington Center
08:05AM 39.1397 -76.8894 230° Southwest 431 496 40,000 60 Level Washington Center
08:06AM 39.0486 -77.0322 231° Southwest 431 496 40,200  Climbing Washington Center
08:07AM 38.9597 -77.1292 220° Southwest 423 487 40,000 -120 Descending Washington Center
08:08AM 38.8731 -77.2289 222° Southwest 418 481 40,000  Level Washington Center
08:09AM 38.7819 -77.3306 221° Southwest 424 488 40,000  Level Washington Center
08:10AM 38.6911 -77.4217 218° Southwest 424 488 40,000  Level Washington Center
08:11AM 38.6019 -77.5203 221° Southwest 429 494 40,000  Level Washington Center
08:12AM 38.5128 -77.6189 221° Southwest 434 499 40,000  Level Washington Center
08:13AM 38.4214 -77.7169 220° Southwest 434 499 40,000  Level Washington Center
08:14AM 38.3406 -77.8075 221° Southwest 434 499 40,000  Level Washington Center
08:15AM 38.2489 -77.9053 220° Southwest 434 499 40,000  Level Washington Center
08:16AM 38.1575 -78.0028 220° Southwest 434 499 40,000  Level Washington Center
08:17AM 38.0678 -78.1000 220° Southwest 434 499 40,000  Level Washington Center
08:18AM 37.9783 -78.1919 219° Southwest 428 493 40,000  Level Washington Center
08:19AM 37.8806 -78.2781 215° Southwest 428 493 40,000  Level Washington Center
08:20AM 37.7886 -78.3719 219° Southwest 428 493 40,000  Level Washington Center
08:21AM 37.6861 -78.4706 217° Southwest 428 493 40,000  Level Washington Center
08:22AM 37.5903 -78.5586 216° Southwest 428 493 40,000  Level Washington Center
08:23AM 37.4961 -78.6467 217° Southwest 428 493 40,000  Level Washington Center
08:24AM 37.4000 -78.7369 217° Southwest 428 493 40,000  Level Washington Center
08:25AM 37.3103 -78.8192 216° Southwest 428 493 40,000  Level Washington Center
08:26AM 37.2158 -78.9067 216° Southwest 433 498 40,000  Level Washington Center
08:27AM 37.1175 -78.9986 217° Southwest 433 498 40,000  Level Washington Center
08:28AM 37.0189 -79.0881 216° Southwest 438 504 40,000  Level Washington Center
08:29AM 36.9222 -79.1772 216° Southwest 443 510 40,000  Level Washington Center
08:30AM 36.8131 -79.2758 216° Southwest 443 510 40,000  Level Washington Center
08:31AM 36.7164 -79.3647 216° Southwest 443 510 40,000  Level Washington Center
08:32AM 36.6194 -79.4556 217° Southwest 443 510 40,000  Level Washington Center
08:33AM 36.5206 -79.5439 216° Southwest 443 510 40,000  Level Washington Center
08:34AM 36.4239 -79.6319 216° Southwest 443 510 40,000  Level Washington Center
08:35AM 36.3547 -79.6922 215° Southwest 448 516 40,000  Level Atlanta Center
08:36AM 36.2556 -79.7825 216° Southwest 448 516 40,000  Level Atlanta Center
08:37AM 36.1606 -79.8675 216° Southwest 443 510 40,000  Level Atlanta Center
08:38AM 36.0614 -79.9572 216° Southwest 443 510 40,000  Level Atlanta Center
08:39AM 35.9631 -80.0136 205° Southwest 438 504 40,000  Level Atlanta Center
08:40AM 35.8522 -80.0703 203° Southwest 433 498 40,000  Level Atlanta Center
08:41AM 35.7433 -80.1242 202° Southwest 438 504 40,000  Level Atlanta Center
08:42AM 35.6203 -80.1889 203° Southwest 438 504 40,000  Level Atlanta Center
08:43AM 35.5075 -80.2478 203° Southwest 438 504 40,000  Level Atlanta Center
08:44AM 35.3964 -80.3036 202° Southwest 433 498 40,000  Level Atlanta Center
08:45AM 35.2875 -80.3569 202° Southwest 433 498 40,000  Level Atlanta Center
08:46AM 35.1867 -80.4072 202° Southwest 433 498 40,000  Level Atlanta Center
08:48AM 34.9492 -80.5247 202° Southwest 429 494 40,000  Level Jacksonville Center
08:49AM 34.8292 -80.5836 202° Southwest 429 494 40,000  Level Jacksonville Center
08:50AM 34.7278 -80.6342 202° Southwest 422 486 40,000  Level Jacksonville Center
08:51AM 34.6183 -80.6900 203° Southwest 422 486 40,000  Level Jacksonville Center
08:52AM 34.5006 -80.7486 202° Southwest 442 509 40,000  Level Jacksonville Center
08:53AM 34.3928 -80.7989 201° Southwest 430 495 40,000  Level Jacksonville Center
08:54AM 34.2956 -80.8492 203° Southwest 430 495 40,000  Level Jacksonville Center
08:55AM 34.1817 -80.9019 201° Southwest 425 489 40,000  Level Jacksonville Center
08:56AM 34.0719 -80.9547 202° Southwest 425 489 40,000  Level Jacksonville Center
08:57AM 33.9600 -81.0097 202° Southwest 430 495 40,000  Level Jacksonville Center
08:58AM 33.8522 -81.0619 202° Southwest 430 495 40,000  Level Jacksonville Center
08:59AM 33.7403 -81.1142 201° Southwest 430 495 40,000  Level Jacksonville Center
09:00AM 33.6283 -81.1689 202° Southwest 435 501 40,000  Level Jacksonville Center
09:01AM 33.5164 -81.2161 199° South 435 501 40,000  Level Jacksonville Center
09:02AM 33.4000 -81.2506 194° South 430 495 40,000  Level Jacksonville Center
09:03AM 33.2856 -81.2850 194° South 425 489 40,000  Level Jacksonville Center
09:04AM 33.1672 -81.3194 194° South 431 496 40,000  Level Jacksonville Center
09:05AM 33.0528 -81.3536 194° South 431 496 40,000 -300 Level Jacksonville Center
09:06AM 32.9364 -81.3903 195° South 431 496 39,500 -780 Descending Jacksonville Center
09:07AM 32.8219 -81.4217 193° South 431 496 38,500 -960 Descending Jacksonville Center
09:08AM 32.7053 -81.4583 195° South 431 496 37,600 -960 Descending Jacksonville Center
09:09AM 32.6014 -81.4894 194° South 431 496 36,700 -840 Descending Jacksonville Center
09:10AM 32.4744 -81.5258 194° South 426 490 36,000 -360 Descending Jacksonville Center
09:11AM 32.3558 -81.5644 195° South 434 499 36,000  Level Jacksonville Center
09:12AM 32.2517 -81.5956 194° South 434 499 36,000  Level Jacksonville Center
09:13AM 32.1228 -81.6317 193° South 434 499 36,000  Level Jacksonville Center
09:14AM 32.0164 -81.6625 194° South 429 494 36,000  Level Jacksonville Center
09:15AM 31.8894 -81.7011 194° South 434 499 36,000  Level Jacksonville Center
09:16AM 31.7708 -81.7367 194° South 440 506 36,000  Level Jacksonville Center
09:17AM 31.6542 -81.7700 194° South 433 498 36,000  Level Jacksonville Center
09:18AM 31.5356 -81.8031 193° South 433 498 36,000  Level Jacksonville Center
09:19AM 31.4292 -81.8333 194° South 439 505 36,000  Level Jacksonville Center
09:20AM 31.3128 -81.8711 195° South 434 499 36,000  Level Jacksonville Center
09:21AM 31.1958 -81.8992 192° South 434 499 36,000  Level Jacksonville Center
09:22AM 31.0814 -81.9344 195° South 429 494 36,000  Level Jacksonville Center
09:23AM 30.9647 -81.9694 194° South 434 499 36,000  Level Jacksonville Center
09:24AM 30.8458 -82.0069 195° South 434 499 36,000  Level Jacksonville Center
09:25AM 30.7292 -82.0394 193° South 434 499 36,000  Level Jacksonville Center
09:26AM 30.6147 -82.0694 193° South 434 499 36,000  Level Jacksonville Center
09:27AM 30.4853 -82.1019 192° South 434 499 36,000  Level Jacksonville Center
09:28AM 30.3708 -82.1367 195° South 434 499 36,000 -120 Level Jacksonville Center
09:29AM 30.2542 -82.1711 194° South 434 499 35,800 -600 Descending Jacksonville Center
09:30AM 30.1372 -82.2008 192° South 434 499 34,800 -1,020 Descending Jacksonville Center
09:31AM 30.0206 -82.2328 193° South 434 499 33,800 -1,020 Descending Jacksonville Center
09:32AM 29.9039 -82.2719 196° South 434 499 32,800 -1,140 Descending Jacksonville Center
09:33AM 29.7869 -82.3039 193° South 434 499 31,600 -2,100 Descending Jacksonville Center
09:34AM 29.6703 -82.3356 193° South 434 499 28,700 -2,400 Descending Jacksonville Center
09:35AM 29.5514 -82.3531 187° South 434 499 26,900 -1,440 Descending Jacksonville Center
09:36AM 29.4322 -82.3394 174° South 420 483 25,900 -1,260 Descending Jacksonville Center
09:37AM 29.3175 -82.3281 175° South 420 483 24,400 -1,980 Descending Jacksonville Center
09:38AM 29.2047 -82.3144 174° South 420 483 22,000 -2,400 Descending Jacksonville Center
09:39AM 29.0981 -82.3008 174° South 408 470 19,700 -2,280 Descending Jacksonville Center
09:40AM 28.9958 -82.2894 174° South 397 457 17,500 -2,100 Descending Jacksonville Center
09:41AM 28.9019 -82.2758 173° South 384 442 15,500 -1,620 Descending Jacksonville Center
09:43AM 28.7167 -82.2667 178° South 322 371 13,000 -1,260 Descending Tampa TRACON
09:44AM 28.6333 -82.2667 180° South 301 346 12,100 -1,200 Descending Tampa TRACON
09:45AM 28.5500 -82.2667 180° South 291 335 10,600 -1,560 Descending Tampa TRACON
09:46AM 28.4667 -82.2833 190° South 286 329 8,900 -1,380 Descending Tampa TRACON
09:47AM 28.4000 -82.3000 192° South 283 326 7,800 -1,380 Descending Tampa TRACON
09:48AM 28.3167 -82.3167 190° South 272 313 6,100 -1,380 Descending Tampa TRACON
09:49AM 28.2500 -82.3833 221° Southwest 267 307 5,000 -960 Descending Tampa TRACON
09:50AM 28.2000 -82.4333 221° Southwest 246 283 4,200 -1,380 Descending Tampa TRACON
09:51AM 28.1500 -82.4667 210° Southwest 245 282 2,300 -1,140 Descending Tampa TRACON
09:52AM 28.1000 -82.5167 221° Southwest 194 223 2,000 -420 Descending Tampa TRACON
09:53AM 28.0667 -82.5333 204° Southwest 137 158 1,500 -480 Descending Tampa TRACON